Terminal Aerodrome Forecast
Issued by NWS

Home | Current Version | Previous Version | Text Only | Print | Product List | Glossary On
Versions: 1 2 3 4 5 6 7 8 9 10 11 12 13 14 15 16 17 18 19 20 21
390
FTUS43 KDLH 210537
TAFBRD
TAF
KBRD 210537Z 2106/2206 00000KT P6SM SKC
     FM211500 14007KT P6SM BKN060
     FM220000 VRB03KT P6SM OVC050
     FM220400 12001KT P6SM OVC025=

USA.gov is the U.S. government's official web portal to all federal, state and local government web resources and services.